sensor_id;sensor_type;location;lat;lon;timestamp;pressure;altitude;pressure_sealevel;temperature;humidity
39443;BME280;25147;52.142;9.960;2023-06-14T00:00:00;100423.75;;;14.61;53.22
39443;BME280;25147;52.142;9.960;2023-06-14T00:02:29;100686.75;;;16.16;53.42
39443;BME280;25147;52.142;9.960;2023-06-14T00:04:56;100673.63;;;16.13;53.61
39443;BME280;25147;52.142;9.960;2023-06-14T00:07:35;100603.81;;;15.70;53.33
39443;BME280;25147;52.142;9.960;2023-06-14T00:10:03;100679.19;;;16.05;53.60
39443;BME280;25147;52.142;9.960;2023-06-14T00:12:30;100678.44;;;16.02;54.10
39443;BME280;25147;52.142;9.960;2023-06-14T00:14:57;100682.97;;;15.98;54.79
39443;BME280;25147;52.142;9.960;2023-06-14T00:17:24;100460.56;;;14.63;54.71
39443;BME280;25147;52.142;9.960;2023-06-14T00:19:55;100696.47;;;15.89;54.13
39443;BME280;25147;52.142;9.960;2023-06-14T00:22:23;100695.72;;;15.86;54.32
39443;BME280;25147;52.142;9.960;2023-06-14T00:24:52;100554.56;;;14.91;54.16
39443;BME280;25147;52.142;9.960;2023-06-14T00:27:19;100593.72;;;15.30;54.07
39443;BME280;25147;52.142;9.960;2023-06-14T00:29:46;100459.59;;;14.37;54.34
39443;BME280;25147;52.142;9.960;2023-06-14T00:32:13;100669.84;;;15.69;54.75
39443;BME280;25147;52.142;9.960;2023-06-14T00:34:40;100594.91;;;15.21;54.74
39443;BME280;25147;52.142;9.960;2023-06-14T00:37:07;100585.41;;;15.15;54.66
39443;BME280;25147;52.142;9.960;2023-06-14T00:39:34;100675.91;;;15.72;55.47
39443;BME280;25147;52.142;9.960;2023-06-14T00:42:06;100518.34;;;14.69;55.29
39443;BME280;25147;52.142;9.960;2023-06-14T00:44:33;100639.19;;;15.38;55.21
39443;BME280;25147;52.142;9.960;2023-06-14T00:47:00;100542.97;;;14.68;55.48
39443;BME280;25147;52.142;9.960;2023-06-14T00:49:29;100635.97;;;15.28;55.36
39443;BME280;25147;52.142;9.960;2023-06-14T00:51:56;100591.09;;;15.03;55.60
39443;BME280;25147;52.142;9.960;2023-06-14T00:54:23;100462.72;;;14.20;55.45
39443;BME280;25147;52.142;9.960;2023-06-14T00:56:49;100564.69;;;14.76;56.03
39443;BME280;25147;52.142;9.960;2023-06-14T00:59:17;100437.53;;;13.83;56.31
39443;BME280;25147;52.142;9.960;2023-06-14T01:01:44;100401.78;;;13.76;56.15
39443;BME280;25147;52.142;9.960;2023-06-14T01:04:11;100272.19;;;12.79;56.10
39443;BME280;25147;52.142;9.960;2023-06-14T01:06:43;100384.13;;;13.50;56.85
39443;BME280;25147;52.142;9.960;2023-06-14T01:09:15;100676.28;;;15.05;57.38
39443;BME280;25147;52.142;9.960;2023-06-14T01:11:50;100697.66;;;15.24;57.58
39443;BME280;25147;52.142;9.960;2023-06-14T01:14:22;100538.97;;;14.25;57.68
39443;BME280;25147;52.142;9.960;2023-06-14T01:16:52;100630.47;;;14.79;57.90
39443;BME280;25147;52.142;9.960;2023-06-14T01:19:19;100605.56;;;14.61;57.99
39443;BME280;25147;52.142;9.960;2023-06-14T01:21:48;100340.34;;;12.85;57.87
39443;BME280;25147;52.142;9.960;2023-06-14T01:24:18;100648.38;;;14.68;58.19
39443;BME280;25147;52.142;9.960;2023-06-14T01:26:49;100657.78;;;14.77;58.54
39443;BME280;25147;52.142;9.960;2023-06-14T01:29:22;100598.09;;;14.44;58.27
39443;BME280;25147;52.142;9.960;2023-06-14T01:31:49;100688.88;;;14.95;58.26
39443;BME280;25147;52.142;9.960;2023-06-14T01:34:16;100503.41;;;13.80;58.24
39443;BME280;25147;52.142;9.960;2023-06-14T01:36:43;100688.97;;;14.92;58.28
39443;BME280;25147;52.142;9.960;2023-06-14T01:39:13;100649.25;;;14.69;58.57
39443;BME280;25147;52.142;9.960;2023-06-14T01:41:42;100687.22;;;14.91;58.50
39443;BME280;25147;52.142;9.960;2023-06-14T01:44:10;100686.38;;;14.91;58.78
39443;BME280;25147;52.142;9.960;2023-06-14T01:46:37;100606.34;;;14.32;58.75
39443;BME280;25147;52.142;9.960;2023-06-14T01:49:04;100613.19;;;14.39;58.72
39443;BME280;25147;52.142;9.960;2023-06-14T01:51:30;100689.97;;;14.88;58.77
39443;BME280;25147;52.142;9.960;2023-06-14T01:53:57;100612.38;;;14.37;59.15
39443;BME280;25147;52.142;9.960;2023-06-14T01:56:25;100695.25;;;14.88;59.25
39443;BME280;25147;52.142;9.960;2023-06-14T01:58:54;100402.75;;;13.10;59.34
39443;BME280;25147;52.142;9.960;2023-06-14T02:01:21;100717.19;;;14.89;59.48
39443;BME280;25147;52.142;9.960;2023-06-14T02:03:48;100661.59;;;14.67;59.84
39443;BME280;25147;52.142;9.960;2023-06-14T02:06:16;100608.00;;;14.36;59.63
39443;BME280;25147;52.142;9.960;2023-06-14T02:08:43;100556.47;;;13.96;60.07
39443;BME280;25147;52.142;9.960;2023-06-14T02:11:10;100707.78;;;14.80;59.98
39443;BME280;25147;52.142;9.960;2023-06-14T02:13:36;100700.81;;;14.77;60.29
39443;BME280;25147;52.142;9.960;2023-06-14T02:16:05;100701.81;;;14.73;60.52
39443;BME280;25147;52.142;9.960;2023-06-14T02:18:33;100584.47;;;13.99;60.53
39443;BME280;25147;52.142;9.960;2023-06-14T02:21:00;100619.19;;;14.13;60.83
39443;BME280;25147;52.142;9.960;2023-06-14T02:23:26;100568.28;;;13.81;60.91
39443;BME280;25147;52.142;9.960;2023-06-14T02:25:53;100554.44;;;13.75;61.08
39443;BME280;25147;52.142;9.960;2023-06-14T02:28:20;100677.28;;;14.38;60.94
39443;BME280;25147;52.142;9.960;2023-06-14T02:30:47;100667.88;;;14.30;61.40
39443;BME280;25147;52.142;9.960;2023-06-14T02:33:15;100635.72;;;13.85;63.38
39443;BME280;25147;52.142;9.960;2023-06-14T02:35:43;100549.88;;;13.47;64.98
39443;BME280;25147;52.142;9.960;2023-06-14T02:38:10;100553.06;;;13.25;65.44
39443;BME280;25147;52.142;9.960;2023-06-14T02:40:37;100714.00;;;14.12;66.00
39443;BME280;25147;52.142;9.960;2023-06-14T02:43:04;100716.00;;;14.02;66.67
39443;BME280;25147;52.142;9.960;2023-06-14T02:45:30;100642.84;;;13.48;66.70
39443;BME280;25147;52.142;9.960;2023-06-14T02:47:57;100429.50;;;12.19;66.02
39443;BME280;25147;52.142;9.960;2023-06-14T02:50:25;100521.28;;;12.61;65.80
39443;BME280;25147;52.142;9.960;2023-06-14T02:52:53;100393.66;;;11.76;66.13
39443;BME280;25147;52.142;9.960;2023-06-14T02:55:21;100486.16;;;12.28;66.24
39443;BME280;25147;52.142;9.960;2023-06-14T02:57:48;100737.22;;;13.60;66.41
39443;BME280;25147;52.142;9.960;2023-06-14T03:00:15;100674.13;;;13.19;66.79
39443;BME280;25147;52.142;9.960;2023-06-14T03:02:42;100563.56;;;12.51;67.28
39443;BME280;25147;52.142;9.960;2023-06-14T03:05:09;100693.53;;;13.14;67.42
39443;BME280;25147;52.142;9.960;2023-06-14T03:07:38;100645.00;;;12.90;67.62
39443;BME280;25147;52.142;9.960;2023-06-14T03:10:07;100419.50;;;11.53;68.06
39443;BME280;25147;52.142;9.960;2023-06-14T03:12:35;100623.00;;;12.55;68.08
39443;BME280;25147;52.142;9.960;2023-06-14T03:15:02;100634.09;;;12.68;68.44
39443;BME280;25147;52.142;9.960;2023-06-14T03:17:30;100660.06;;;12.81;68.46
39443;BME280;25147;52.142;9.960;2023-06-14T03:19:59;100513.47;;;11.74;68.88
39443;BME280;25147;52.142;9.960;2023-06-14T03:22:26;100648.56;;;12.47;69.38
39443;BME280;25147;52.142;9.960;2023-06-14T03:24:55;100502.47;;;11.57;69.48
39443;BME280;25147;52.142;9.960;2023-06-14T03:27:22;100299.44;;;10.36;69.52
39443;BME280;25147;52.142;9.960;2023-06-14T03:29:48;100486.06;;;11.45;69.91
39443;BME280;25147;52.142;9.960;2023-06-14T03:32:15;100563.16;;;11.82;70.01
39443;BME280;25147;52.142;9.960;2023-06-14T03:34:42;100757.72;;;13.03;70.13
39443;BME280;25147;52.142;9.960;2023-06-14T03:37:10;100789.25;;;13.03;70.27
39443;BME280;25147;52.142;9.960;2023-06-14T03:39:37;100774.34;;;13.04;70.38
39443;BME280;25147;52.142;9.960;2023-06-14T03:42:13;100682.56;;;12.53;70.39
39443;BME280;25147;52.142;9.960;2023-06-14T03:44:40;100783.06;;;13.06;70.58
39443;BME280;25147;52.142;9.960;2023-06-14T03:47:07;100630.16;;;12.03;70.56
39443;BME280;25147;52.142;9.960;2023-06-14T03:49:34;100474.09;;;11.31;70.41
39443;BME280;25147;52.142;9.960;2023-06-14T03:52:02;100513.91;;;11.53;70.55
39443;BME280;25147;52.142;9.960;2023-06-14T03:54:30;100447.31;;;11.15;70.94
39443;BME280;25147;52.142;9.960;2023-06-14T03:56:58;100659.47;;;12.25;70.32
39443;BME280;25147;52.142;9.960;2023-06-14T03:59:26;100809.22;;;13.12;70.77
39443;BME280;25147;52.142;9.960;2023-06-14T04:01:53;100782.91;;;13.15;71.34
39443;BME280;25147;52.142;9.960;2023-06-14T04:04:20;100768.25;;;13.02;71.14
39443;BME280;25147;52.142;9.960;2023-06-14T04:06:56;100697.25;;;12.61;70.62
39443;BME280;25147;52.142;9.960;2023-06-14T04:09:23;100704.19;;;12.65;70.85
39443;BME280;25147;52.142;9.960;2023-06-14T04:11:51;100511.16;;;11.59;70.53
39443;BME280;25147;52.142;9.960;2023-06-14T04:14:18;100600.16;;;12.15;70.77
39443;BME280;25147;52.142;9.960;2023-06-14T04:16:47;100775.75;;;13.22;71.05
39443;BME280;25147;52.142;9.960;2023-06-14T04:19:14;100789.75;;;13.22;70.96
39443;BME280;25147;52.142;9.960;2023-06-14T04:21:41;100783.66;;;13.20;70.79
39443;BME280;25147;52.142;9.960;2023-06-14T04:24:08;100735.28;;;12.87;70.87
39443;BME280;25147;52.142;9.960;2023-06-14T04:26:39;100716.09;;;12.83;71.04
39443;BME280;25147;52.142;9.960;2023-06-14T04:29:06;100792.38;;;13.22;71.11
39443;BME280;25147;52.142;9.960;2023-06-14T04:31:33;100809.88;;;13.23;71.12
39443;BME280;25147;52.142;9.960;2023-06-14T04:34:04;100802.84;;;13.24;71.38
39443;BME280;25147;52.142;9.960;2023-06-14T04:36:32;100800.22;;;13.24;71.00
39443;BME280;25147;52.142;9.960;2023-06-14T04:39:00;100800.97;;;13.32;70.81
39443;BME280;25147;52.142;9.960;2023-06-14T04:41:28;100805.91;;;13.48;71.16
39443;BME280;25147;52.142;9.960;2023-06-14T04:43:56;100729.47;;;13.15;70.07
39443;BME280;25147;52.142;9.960;2023-06-14T04:46:27;100642.41;;;12.88;69.48
39443;BME280;25147;52.142;9.960;2023-06-14T04:48:54;100687.84;;;13.35;69.22
39443;BME280;25147;52.142;9.960;2023-06-14T04:51:23;100740.69;;;13.98;68.67
39443;BME280;25147;52.142;9.960;2023-06-14T04:53:55;100665.44;;;13.89;67.21
39443;BME280;25147;52.142;9.960;2023-06-14T04:56:23;100807.97;;;15.10;65.74
39443;BME280;25147;52.142;9.960;2023-06-14T04:58:51;100654.50;;;14.37;65.19
39443;BME280;25147;52.142;9.960;2023-06-14T05:01:19;100746.78;;;14.98;64.51
39443;BME280;25147;52.142;9.960;2023-06-14T05:03:46;100827.25;;;15.71;62.94
39443;BME280;25147;52.142;9.960;2023-06-14T05:06:14;100661.06;;;14.85;62.54
39443;BME280;25147;52.142;9.960;2023-06-14T05:08:42;100576.31;;;14.08;62.75
39443;BME280;25147;52.142;9.960;2023-06-14T05:11:09;100760.03;;;15.27;63.18
39443;BME280;25147;52.142;9.960;2023-06-14T05:13:36;100823.13;;;15.62;63.52
39443;BME280;25147;52.142;9.960;2023-06-14T05:16:03;100656.09;;;14.43;63.12
39443;BME280;25147;52.142;9.960;2023-06-14T05:18:30;100848.19;;;15.49;63.33
39443;BME280;25147;52.142;9.960;2023-06-14T05:20:56;100828.19;;;15.40;63.92
39443;BME280;25147;52.142;9.960;2023-06-14T05:23:23;100785.25;;;15.05;64.04
39443;BME280;25147;52.142;9.960;2023-06-14T05:25:52;100756.06;;;14.82;64.26
39443;BME280;25147;52.142;9.960;2023-06-14T05:28:20;100839.44;;;15.16;64.74
39443;BME280;25147;52.142;9.960;2023-06-14T05:30:47;100796.63;;;14.76;65.03
39443;BME280;25147;52.142;9.960;2023-06-14T05:33:14;100754.44;;;14.43;65.62
39443;BME280;25147;52.142;9.960;2023-06-14T05:35:41;100548.19;;;13.09;65.62
39443;BME280;25147;52.142;9.960;2023-06-14T05:38:09;100729.22;;;14.00;66.17
39443;BME280;25147;52.142;9.960;2023-06-14T05:40:36;100837.97;;;14.74;66.65
39443;BME280;25147;52.142;9.960;2023-06-14T05:43:05;100838.13;;;14.68;67.29
39443;BME280;25147;52.142;9.960;2023-06-14T05:45:35;100842.44;;;14.71;68.28
39443;BME280;25147;52.142;9.960;2023-06-14T05:48:02;100648.84;;;13.51;67.77
39443;BME280;25147;52.142;9.960;2023-06-14T05:50:29;100846.19;;;14.62;68.29
39443;BME280;25147;52.142;9.960;2023-06-14T05:52:56;100855.13;;;14.56;68.66
39443;BME280;25147;52.142;9.960;2023-06-14T05:55:22;100844.38;;;14.64;68.86
39443;BME280;25147;52.142;9.960;2023-06-14T05:57:50;100851.34;;;14.67;69.86
39443;BME280;25147;52.142;9.960;2023-06-14T06:00:19;100888.19;;;14.68;69.33
39443;BME280;25147;52.142;9.960;2023-06-14T06:02:46;100744.91;;;14.05;69.29
39443;BME280;25147;52.142;9.960;2023-06-14T06:05:13;100886.25;;;14.75;69.65
39443;BME280;25147;52.142;9.960;2023-06-14T06:07:41;100726.91;;;13.88;70.11
39443;BME280;25147;52.142;9.960;2023-06-14T06:10:10;100854.41;;;14.84;69.07
39443;BME280;25147;52.142;9.960;2023-06-14T06:12:37;100850.03;;;14.83;68.91
39443;BME280;25147;52.142;9.960;2023-06-14T06:15:04;100882.41;;;14.88;69.49
39443;BME280;25147;52.142;9.960;2023-06-14T06:17:33;100880.53;;;14.92;69.66
39443;BME280;25147;52.142;9.960;2023-06-14T06:20:00;100853.16;;;14.97;69.19
39443;BME280;25147;52.142;9.960;2023-06-14T06:22:27;100574.16;;;13.22;68.80
39443;BME280;25147;52.142;9.960;2023-06-14T06:24:54;100834.91;;;14.90;68.71
39443;BME280;25147;52.142;9.960;2023-06-14T06:27:21;100589.56;;;13.39;68.07
39443;BME280;25147;52.142;9.960;2023-06-14T06:29:50;100630.53;;;13.82;67.43
39443;BME280;25147;52.142;9.960;2023-06-14T06:32:17;100711.47;;;14.41;67.21
39443;BME280;25147;52.142;9.960;2023-06-14T06:34:45;100864.53;;;15.31;66.37
39443;BME280;25147;52.142;9.960;2023-06-14T06:37:13;100516.97;;;13.32;66.13
39443;BME280;25147;52.142;9.960;2023-06-14T06:39:40;100864.19;;;15.43;66.46
39443;BME280;25147;52.142;9.960;2023-06-14T06:42:06;100896.56;;;15.48;66.10
39443;BME280;25147;52.142;9.960;2023-06-14T06:44:34;100656.78;;;14.18;65.77
39443;BME280;25147;52.142;9.960;2023-06-14T06:47:01;100889.16;;;15.61;65.36
39443;BME280;25147;52.142;9.960;2023-06-14T06:49:28;100680.47;;;14.51;64.44
39443;BME280;25147;52.142;9.960;2023-06-14T06:52:01;100783.06;;;15.20;64.12
39443;BME280;25147;52.142;9.960;2023-06-14T06:54:28;100813.34;;;15.36;64.08
39443;BME280;25147;52.142;9.960;2023-06-14T06:56:56;100890.41;;;15.79;64.37
39443;BME280;25147;52.142;9.960;2023-06-14T06:59:22;100533.25;;;13.79;64.07
39443;BME280;25147;52.142;9.960;2023-06-14T07:01:50;100835.47;;;15.62;64.29
39443;BME280;25147;52.142;9.960;2023-06-14T07:04:19;100596.81;;;14.28;63.70
39443;BME280;25147;52.142;9.960;2023-06-14T07:06:46;100891.44;;;16.03;63.35
39443;BME280;25147;52.142;9.960;2023-06-14T07:09:15;100790.88;;;15.53;63.15
39443;BME280;25147;52.142;9.960;2023-06-14T07:11:44;100890.34;;;16.10;63.15
39443;BME280;25147;52.142;9.960;2023-06-14T07:14:11;100760.84;;;15.29;62.79
39443;BME280;25147;52.142;9.960;2023-06-14T07:16:38;100617.84;;;14.61;62.90
39443;BME280;25147;52.142;9.960;2023-06-14T07:19:06;100801.00;;;15.67;63.32
39443;BME280;25147;52.142;9.960;2023-06-14T07:21:33;100725.09;;;15.47;62.83
39443;BME280;25147;52.142;9.960;2023-06-14T07:24:06;100583.34;;;14.69;62.15
39443;BME280;25147;52.142;9.960;2023-06-14T07:26:35;100723.03;;;15.56;62.10
39443;BME280;25147;52.142;9.960;2023-06-14T07:29:02;100766.34;;;15.79;61.07
39443;BME280;25147;52.142;9.960;2023-06-14T07:31:29;100763.44;;;15.87;60.90
39443;BME280;25147;52.142;9.960;2023-06-14T07:33:57;100517.97;;;14.52;61.13
39443;BME280;25147;52.142;9.960;2023-06-14T07:36:24;100837.34;;;16.41;59.88
39443;BME280;25147;52.142;9.960;2023-06-14T07:38:51;100844.09;;;16.50;59.65
39443;BME280;25147;52.142;9.960;2023-06-14T07:41:18;100790.38;;;16.24;60.06
39443;BME280;25147;52.142;9.960;2023-06-14T07:43:49;100920.81;;;17.02;59.37
39443;BME280;25147;52.142;9.960;2023-06-14T07:46:15;100894.97;;;17.10;59.43
39443;BME280;25147;52.142;9.960;2023-06-14T07:48:42;100771.28;;;16.41;59.31
39443;BME280;25147;52.142;9.960;2023-06-14T07:51:09;100678.16;;;15.84;59.06
39443;BME280;25147;52.142;9.960;2023-06-14T07:53:36;100771.44;;;16.62;58.58
39443;BME280;25147;52.142;9.960;2023-06-14T07:56:03;100634.28;;;15.80;58.44
39443;BME280;25147;52.142;9.960;2023-06-14T07:58:30;100627.00;;;15.87;58.47
39443;BME280;25147;52.142;9.960;2023-06-14T08:00:58;100922.78;;;17.45;59.13
39443;BME280;25147;52.142;9.960;2023-06-14T08:03:27;100709.38;;;16.49;58.60
39443;BME280;25147;52.142;9.960;2023-06-14T08:05:55;100536.63;;;15.54;57.99
39443;BME280;25147;52.142;9.960;2023-06-14T08:08:22;100839.06;;;17.43;57.66
39443;BME280;25147;52.142;9.960;2023-06-14T08:10:49;100559.84;;;15.69;56.94
39443;BME280;25147;52.142;9.960;2023-06-14T08:13:16;100893.19;;;17.83;56.70
39443;BME280;25147;52.142;9.960;2023-06-14T08:15:43;100471.91;;;15.43;57.11
39443;BME280;25147;52.142;9.960;2023-06-14T08:18:12;100747.94;;;17.03;57.37
39443;BME280;25147;52.142;9.960;2023-06-14T08:20:39;100932.19;;;18.01;56.54
39443;BME280;25147;52.142;9.960;2023-06-14T08:23:05;100824.50;;;17.55;56.56
39443;BME280;25147;52.142;9.960;2023-06-14T08:25:34;100884.25;;;17.86;55.91
39443;BME280;25147;52.142;9.960;2023-06-14T08:28:01;100370.47;;;14.78;56.54
39443;BME280;25147;52.142;9.960;2023-06-14T08:30:28;100900.22;;;17.82;56.68
39443;BME280;25147;52.142;9.960;2023-06-14T08:32:55;100901.59;;;17.93;56.02
39443;BME280;25147;52.142;9.960;2023-06-14T08:35:23;100904.50;;;17.87;56.15
39443;BME280;25147;52.142;9.960;2023-06-14T08:37:50;100837.50;;;17.61;55.63
39443;BME280;25147;52.142;9.960;2023-06-14T08:40:22;100775.50;;;17.21;55.60
39443;BME280;25147;52.142;9.960;2023-06-14T08:42:53;100905.69;;;18.01;55.41
39443;BME280;25147;52.142;9.960;2023-06-14T08:45:21;100897.84;;;17.98;55.66
39443;BME280;25147;52.142;9.960;2023-06-14T08:47:48;100855.97;;;17.86;55.36
39443;BME280;25147;52.142;9.960;2023-06-14T08:50:20;100858.75;;;17.83;55.26
39443;BME280;25147;52.142;9.960;2023-06-14T08:52:52;100755.63;;;17.33;54.90
39443;BME280;25147;52.142;9.960;2023-06-14T08:55:21;100861.94;;;17.91;54.77
39443;BME280;25147;52.142;9.960;2023-06-14T08:57:54;100617.69;;;16.51;54.60
39443;BME280;25147;52.142;9.960;2023-06-14T09:00:22;100545.03;;;15.92;54.96
39443;BME280;25147;52.142;9.960;2023-06-14T09:02:50;100903.47;;;18.13;55.05
39443;BME280;25147;52.142;9.960;2023-06-14T09:05:22;100786.41;;;17.35;54.89
39443;BME280;25147;52.142;9.960;2023-06-14T09:07:50;100903.66;;;18.08;54.63
39443;BME280;25147;52.142;9.960;2023-06-14T09:10:18;100826.03;;;17.60;54.38
39443;BME280;25147;52.142;9.960;2023-06-14T09:12:45;100870.19;;;17.83;54.09
39443;BME280;25147;52.142;9.960;2023-06-14T09:15:12;100815.56;;;17.57;54.06
39443;BME280;25147;52.142;9.960;2023-06-14T09:17:43;100912.22;;;18.15;53.91
39443;BME280;25147;52.142;9.960;2023-06-14T09:20:10;100642.44;;;16.48;53.41
39443;BME280;25147;52.142;9.960;2023-06-14T09:22:39;100713.22;;;17.12;52.83
39443;BME280;25147;52.142;9.960;2023-06-14T09:25:08;100889.38;;;18.12;52.66
39443;BME280;25147;52.142;9.960;2023-06-14T09:27:35;100919.13;;;18.41;52.34
39443;BME280;25147;52.142;9.960;2023-06-14T09:30:06;100920.94;;;18.40;52.38
39443;BME280;25147;52.142;9.960;2023-06-14T09:32:36;100734.00;;;17.21;52.82
39443;BME280;25147;52.142;9.960;2023-06-14T09:35:05;100903.16;;;18.20;52.79
39443;BME280;25147;52.142;9.960;2023-06-14T09:37:35;100796.47;;;17.49;52.78
39443;BME280;25147;52.142;9.960;2023-06-14T09:40:04;100778.84;;;17.48;52.33
39443;BME280;25147;52.142;9.960;2023-06-14T09:42:34;100799.38;;;17.65;52.84
39443;BME280;25147;52.142;9.960;2023-06-14T09:45:03;100767.09;;;17.55;52.50
39443;BME280;25147;52.142;9.960;2023-06-14T09:47:31;100863.63;;;18.16;52.74
39443;BME280;25147;52.142;9.960;2023-06-14T09:50:04;100457.53;;;15.77;52.88
39443;BME280;25147;52.142;9.960;2023-06-14T09:52:31;100771.13;;;17.65;52.07
39443;BME280;25147;52.142;9.960;2023-06-14T09:54:59;100811.44;;;17.72;51.32
39443;BME280;25147;52.142;9.960;2023-06-14T09:57:27;100669.28;;;17.08;51.12
39443;BME280;25147;52.142;9.960;2023-06-14T09:59:57;100821.00;;;18.20;50.69
39443;BME280;25147;52.142;9.960;2023-06-14T10:02:27;100750.94;;;17.85;51.35
39443;BME280;25147;52.142;9.960;2023-06-14T10:04:58;100678.59;;;17.40;51.37
39443;BME280;25147;52.142;9.960;2023-06-14T10:07:32;100909.19;;;18.89;51.35
39443;BME280;25147;52.142;9.960;2023-06-14T10:10:01;100723.25;;;17.92;50.66
39443;BME280;25147;52.142;9.960;2023-06-14T10:12:28;100826.66;;;18.54;50.14
39443;BME280;25147;52.142;9.960;2023-06-14T10:14:56;100900.47;;;19.07;49.79
39443;BME280;25147;52.142;9.960;2023-06-14T10:17:28;100894.94;;;19.12;49.82
39443;BME280;25147;52.142;9.960;2023-06-14T10:20:16;100790.44;;;18.54;49.71
39443;BME280;25147;52.142;9.960;2023-06-14T10:22:48;100878.81;;;19.16;49.83
39443;BME280;25147;52.142;9.960;2023-06-14T10:25:26;100899.91;;;19.40;50.78
39443;BME280;25147;52.142;9.960;2023-06-14T10:28:02;100900.25;;;19.51;50.29
39443;BME280;25147;52.142;9.960;2023-06-14T10:30:30;100889.22;;;19.60;49.78
39443;BME280;25147;52.142;9.960;2023-06-14T10:33:04;100705.38;;;18.59;48.94
39443;BME280;25147;52.142;9.960;2023-06-14T10:35:31;100821.59;;;19.30;48.25
39443;BME280;25147;52.142;9.960;2023-06-14T10:38:06;100859.13;;;19.60;48.47
39443;BME280;25147;52.142;9.960;2023-06-14T10:40:34;100731.66;;;19.03;46.97
39443;BME280;25147;52.142;9.960;2023-06-14T10:43:01;100868.13;;;19.95;46.65
39443;BME280;25147;52.142;9.960;2023-06-14T10:45:27;100734.56;;;19.17;46.53
39443;BME280;25147;52.142;9.960;2023-06-14T10:47:57;100619.84;;;18.54;46.63
39443;BME280;25147;52.142;9.960;2023-06-14T10:50:28;100767.31;;;19.35;46.70
39443;BME280;25147;52.142;9.960;2023-06-14T10:52:55;100598.06;;;18.66;46.29
39443;BME280;25147;52.142;9.960;2023-06-14T10:55:22;100743.13;;;19.41;46.14
39443;BME280;25147;52.142;9.960;2023-06-14T10:57:50;100704.81;;;19.47;45.92
39443;BME280;25147;52.142;9.960;2023-06-14T11:00:19;100838.41;;;20.23;46.12
39443;BME280;25147;52.142;9.960;2023-06-14T11:03:24;100863.03;;;20.44;46.51
39443;BME280;25147;52.142;9.960;2023-06-14T11:05:58;100601.75;;;19.01;46.34
39443;BME280;25147;52.142;9.960;2023-06-14T11:11:15;100870.66;;;20.70;46.25
39443;BME280;25147;52.142;9.960;2023-06-14T11:13:44;100859.84;;;20.90;46.16
39443;BME280;25147;52.142;9.960;2023-06-14T11:16:12;100806.50;;;20.58;46.20
39443;BME280;25147;52.142;9.960;2023-06-14T11:18:42;100870.94;;;21.16;45.79
39443;BME280;25147;52.142;9.960;2023-06-14T11:21:11;100600.59;;;19.78;45.56
39443;BME280;25147;52.142;9.960;2023-06-14T11:23:38;100720.44;;;20.59;44.88
39443;BME280;25147;52.142;9.960;2023-06-14T11:26:06;100632.59;;;20.10;44.95
39443;BME280;25147;52.142;9.960;2023-06-14T11:28:37;100761.69;;;20.84;44.82
39443;BME280;25147;52.142;9.960;2023-06-14T11:31:04;100887.03;;;21.30;44.92
39443;BME280;25147;52.142;9.960;2023-06-14T11:33:31;100840.97;;;21.28;45.75
39443;BME280;25147;52.142;9.960;2023-06-14T11:36:01;100842.59;;;21.31;45.32
39443;BME280;25147;52.142;9.960;2023-06-14T11:38:29;100848.03;;;21.29;45.52
39443;BME280;25147;52.142;9.960;2023-06-14T11:40:58;100775.97;;;20.66;45.11
39443;BME280;25147;52.142;9.960;2023-06-14T11:43:26;100512.53;;;19.16;45.71
39443;BME280;25147;52.142;9.960;2023-06-14T11:45:53;100710.50;;;20.46;45.46
39443;BME280;25147;52.142;9.960;2023-06-14T11:48:20;100480.16;;;19.10;45.10
39443;BME280;25147;52.142;9.960;2023-06-14T11:50:50;100833.13;;;21.42;44.87
39443;BME280;25147;52.142;9.960;2023-06-14T11:53:18;100834.84;;;21.43;44.96
39443;BME280;25147;52.142;9.960;2023-06-14T11:55:46;100863.69;;;21.35;45.34
39443;BME280;25147;52.142;9.960;2023-06-14T11:58:13;100843.13;;;21.21;45.50
39443;BME280;25147;52.142;9.960;2023-06-14T12:00:40;100803.69;;;20.61;45.57
39443;BME280;25147;52.142;9.960;2023-06-14T12:03:07;100631.59;;;19.78;46.29
39443;BME280;25147;52.142;9.960;2023-06-14T12:05:34;100845.03;;;21.02;46.33
39443;BME280;25147;52.142;9.960;2023-06-14T12:08:03;100575.84;;;19.41;46.76
39443;BME280;25147;52.142;9.960;2023-06-14T12:10:41;100582.91;;;19.42;46.74
39443;BME280;25147;52.142;9.960;2023-06-14T12:13:09;100692.09;;;20.08;46.34
39443;BME280;25147;52.142;9.960;2023-06-14T12:15:36;100779.84;;;20.60;46.78
39443;BME280;25147;52.142;9.960;2023-06-14T12:18:05;100737.88;;;20.48;46.64
39443;BME280;25147;52.142;9.960;2023-06-14T12:20:33;100846.19;;;21.14;46.35
39443;BME280;25147;52.142;9.960;2023-06-14T12:23:03;100595.94;;;19.64;45.89
39443;BME280;25147;52.142;9.960;2023-06-14T12:25:32;100775.00;;;20.84;45.83
39443;BME280;25147;52.142;9.960;2023-06-14T12:28:04;100831.66;;;21.03;45.66
39443;BME280;25147;52.142;9.960;2023-06-14T12:30:32;100847.28;;;21.10;46.23
39443;BME280;25147;52.142;9.960;2023-06-14T12:33:01;100814.44;;;20.93;45.74
39443;BME280;25147;52.142;9.960;2023-06-14T12:35:28;100828.59;;;21.11;45.98
39443;BME280;25147;52.142;9.960;2023-06-14T12:37:55;100837.28;;;21.15;46.05
39443;BME280;25147;52.142;9.960;2023-06-14T12:40:23;100778.63;;;20.83;46.06
39443;BME280;25147;52.142;9.960;2023-06-14T12:42:50;100809.78;;;21.30;45.82
39443;BME280;25147;52.142;9.960;2023-06-14T12:45:18;100551.88;;;19.78;45.59
39443;BME280;25147;52.142;9.960;2023-06-14T12:47:45;100625.06;;;20.52;45.03
39443;BME280;25147;52.142;9.960;2023-06-14T12:50:12;100757.06;;;21.53;44.97
39443;BME280;25147;52.142;9.960;2023-06-14T12:52:39;100771.91;;;21.89;44.75
39443;BME280;25147;52.142;9.960;2023-06-14T12:55:06;100827.16;;;22.33;43.88
39443;BME280;25147;52.142;9.960;2023-06-14T12:57:33;100781.44;;;21.93;44.06